CheckWX is a tool to help pilots better visualize weather data.  It is not intended as a substitute for an official pre-flight weather briefing.

12:26:30 UTC

OIFM TAF
Esfahan Shahid Beheshti International Airport
Isfahan, Iran
TAF OIFM 221130Z 2212/2318 20008KT 8000 FEW030 TEMPO 2212/2215 27018KT TEMPO 2310/2318 26014G24KT

Mar-22@
12:00 UTC

Mar-22 @ 12:00 UTC

Mar-23@
18:00 UTC

Mar-23 @ 18:00 UTC

TAF OIFM 221130Z 2212/2318 20008KT 8000 FEW030
Wind
  • 200° at 8 KTS
Cloud Levels
  • Few at 3,000' AGL

Mar-22@
12:00 UTC

Mar-22 @ 12:00 UTC

Mar-22@
15:00 UTC

Mar-22 @ 15:00 UTC

TEMPO 2212/2215 27018KT

Temporary

Temporary Changes expected for less than half the time period

Wind
  • 270° at 18 KTS

Mar-23@
10:00 UTC

Mar-23 @ 10:00 UTC

Mar-23@
18:00 UTC

Mar-23 @ 18:00 UTC

TEMPO 2310/2318 26014G24KT

Temporary

Temporary Changes expected for less than half the time period

Wind
  • 260° at 14 KTS
  • {Gusting to 24 KTS